Time;durP1;ratioP1;P1;durP2;ratioP2;P2;SDS_P1;SDS_P2;PMS_P1;PMS_P2;Temp;Humidity;BMP_temperature;BMP_pressure;BME280_temperature;BME280_humidity;BME280_pressure;Samples;Min_cycle;Max_cycle;Signal;HPM_P1;HPM_P2
2022/08/26 00:01:24;;;;;;;26.13;6.05;;;;;;;25.29;58.33;99859.16;5072754;28;20039;-78
2022/08/26 00:03:50;;;;;;;34.58;5.43;;;;;;;25.31;58.27;99873.53;5072555;28;20025;-78
2022/08/26 00:06:16;;;;;;;24.10;6.32;;;;;;;25.38;57.86;99882.53;5072727;28;20028;-78
2022/08/26 00:08:42;;;;;;;36.20;4.88;;;;;;;25.38;57.88;99888.03;5072655;28;20135;-75
2022/08/26 00:11:08;;;;;;;37.53;5.97;;;;;;;25.35;57.88;99883.00;5072471;28;20060;-75
2022/08/26 00:13:35;;;;;;;31.55;6.35;;;;;;;25.31;58.07;99885.41;5072377;28;20491;-75
2022/08/26 00:16:01;;;;;;;29.92;4.78;;;;;;;25.22;58.30;99888.75;5069893;28;20024;-75
2022/08/26 00:18:27;;;;;;;23.10;4.90;;;;;;;25.24;58.00;99883.81;5051966;28;20032;-75
2022/08/26 00:20:52;;;;;;;26.88;5.20;;;;;;;25.24;58.00;99883.81;5052107;28;20033;-75
2022/08/26 00:23:19;;;;;;;28.58;5.55;;;;;;;25.28;58.04;99887.78;5051894;28;20039;-75
2022/08/26 00:25:44;;;;;;;20.27;4.50;;;;;;;25.30;58.09;99882.88;5051541;28;20039;-75
2022/08/26 00:28:10;;;;;;;27.88;6.60;;;;;;;25.31;58.18;99870.78;5064160;28;20405;-75
2022/08/26 00:30:36;;;;;;;31.33;5.90;;;;;;;25.21;58.38;99871.38;5072059;28;20033;-75
2022/08/26 00:33:04;;;;;;;31.48;5.40;;;;;;;25.19;58.61;99875.44;5053340;28;20035;-75
2022/08/26 00:35:29;;;;;;;20.55;5.13;;;;;;;25.20;58.73;99872.44;5051907;28;20032;-75
2022/08/26 00:37:56;;;;;;;21.80;5.25;;;;;;;25.24;58.70;99875.56;5058949;28;20044;-75
2022/08/26 00:40:26;;;;;;;24.27;6.03;;;;;;;25.23;58.54;99866.47;5051742;28;20052;-75
2022/08/26 00:42:52;;;;;;;34.00;5.75;;;;;;;25.25;58.11;99874.50;5071367;28;20089;-75
2022/08/26 00:45:17;;;;;;;20.67;4.85;;;;;;;25.23;57.94;99863.72;5065844;28;20432;-75
2022/08/26 00:47:52;;;;;;;26.70;5.72;;;;;;;25.32;57.72;99877.94;5052028;28;20032;-75
2022/08/26 00:50:23;;;;;;;37.33;5.47;;;;;;;25.31;57.58;99874.38;5051933;28;20025;-75
2022/08/26 00:52:50;;;;;;;23.85;5.47;;;;;;;25.33;57.59;99877.72;5052042;28;20112;-76
2022/08/26 00:55:30;;;;;;;43.58;5.95;;;;;;;25.38;57.27;99877.03;5051714;28;20059;-75
2022/08/26 00:57:56;;;;;;;24.08;4.38;;;;;;;25.43;56.99;99874.38;5061790;28;20024;-75
2022/08/26 01:00:25;;;;;;;31.95;6.75;;;;;;;25.43;57.11;99875.22;5071678;28;20024;-75
2022/08/26 01:02:52;;;;;;;25.85;4.97;;;;;;;25.48;57.11;99885.50;5071878;28;20032;-74
2022/08/26 01:05:18;;;;;;;25.27;5.55;;;;;;;25.50;57.04;99888.91;5071809;28;20108;-75
2022/08/26 01:07:44;;;;;;;30.25;5.22;;;;;;;25.54;56.88;99879.06;5071815;28;20020;-75
2022/08/26 01:10:14;;;;;;;30.40;5.82;;;;;;;25.50;56.88;99883.41;5071753;28;20058;-75
2022/08/26 01:12:44;;;;;;;30.75;6.35;;;;;;;25.55;56.83;99891.78;5071651;28;20403;-75
2022/08/26 01:15:24;;;;;;;26.67;5.00;;;;;;;25.53;56.84;99877.41;5071986;28;20039;-75
2022/08/26 01:17:50;;;;;;;20.42;5.70;;;;;;;25.55;56.68;99868.91;5071635;28;20518;-75
2022/08/26 01:20:28;;;;;;;32.42;4.60;;;;;;;25.58;56.37;99872.00;5071787;28;20036;-75
2022/08/26 01:23:00;;;;;;;36.95;5.97;;;;;;;25.57;56.61;99863.97;5071730;28;20042;-74
2022/08/26 01:25:30;;;;;;;29.73;4.95;;;;;;;25.52;56.49;99869.38;5071745;28;20032;-74
2022/08/26 01:27:58;;;;;;;38.35;4.55;;;;;;;25.57;55.97;99870.31;5071856;28;20116;-74
2022/08/26 01:30:26;;;;;;;24.42;5.15;;;;;;;25.59;56.10;99870.94;5071635;28;20024;-74
2022/08/26 01:32:55;;;;;;;24.02;5.10;;;;;;;25.51;56.06;99870.44;5071639;28;20028;-74
2022/08/26 01:35:21;;;;;;;29.00;6.10;;;;;;;25.52;55.97;99870.22;5054472;28;20421;-73
2022/08/26 01:37:50;;;;;;;35.15;5.10;;;;;;;25.47;56.02;99866.47;5051372;28;20029;-74
2022/08/26 01:40:21;;;;;;;24.85;4.15;;;;;;;25.44;55.77;99860.34;5051456;28;20029;-74
2022/08/26 01:42:48;;;;;;;22.30;5.10;;;;;;;25.45;55.65;99856.53;5050965;28;20549;-74
2022/08/26 01:45:18;;;;;;;21.20;4.22;;;;;;;25.45;55.09;99856.53;5054658;28;20016;-75
2022/08/26 01:47:46;;;;;;;33.08;5.32;;;;;;;25.43;55.20;99852.34;5071400;28;20025;-75
2022/08/26 01:50:17;;;;;;;25.55;4.68;;;;;;;25.42;55.09;99851.50;5060166;28;20024;-75
2022/08/26 01:52:45;;;;;;;26.33;4.95;;;;;;;25.49;54.63;99845.91;5051382;28;20025;-75
2022/08/26 01:55:14;;;;;;;26.08;5.13;;;;;;;25.45;54.33;99844.69;5051195;28;20057;-75
2022/08/26 01:57:43;;;;;;;42.83;5.55;;;;;;;25.47;54.18;99844.47;5050037;28;20120;-74
2022/08/26 02:00:12;;;;;;;15.27;3.63;;;;;;;25.50;53.88;99846.75;5051281;28;20425;-75
2022/08/26 02:02:42;;;;;;;26.83;4.32;;;;;;;25.50;53.71;99844.00;5064830;28;20402;-75
2022/08/26 02:05:13;;;;;;;22.38;4.97;;;;;;;25.48;53.11;99849.72;5071359;28;20028;-75
2022/08/26 02:07:39;;;;;;;29.00;4.97;;;;;;;25.36;52.71;99835.09;5072968;28;20466;-75
2022/08/26 02:10:05;;;;;;;49.53;6.10;;;;;;;25.41;52.16;99846.25;5073538;28;20032;-75
2022/08/26 02:12:31;;;;;;;29.42;5.18;;;;;;;25.47;52.19;99842.53;5074950;28;20486;-75
2022/08/26 02:15:00;;;;;;;26.83;4.47;;;;;;;25.43;52.34;99842.19;5074925;28;20020;-75
2022/08/26 02:17:32;;;;;;;28.13;5.65;;;;;;;25.40;52.17;99848.16;5074702;28;20051;-75
2022/08/26 02:19:57;;;;;;;27.88;4.72;;;;;;;25.40;52.33;99852.84;5074812;28;20017;-75
2022/08/26 02:22:23;;;;;;;30.55;5.20;;;;;;;25.42;52.06;99848.75;5074720;28;20108;-76
2022/08/26 02:24:52;;;;;;;26.60;5.60;;;;;;;25.41;52.07;99854.53;5074596;28;20412;-75
2022/08/26 02:27:21;;;;;;;29.77;4.43;;;;;;;25.43;52.10;99846.84;5074704;28;20021;-74
2022/08/26 02:29:53;;;;;;;22.23;5.50;;;;;;;25.40;52.28;99844.56;5074565;28;20099;-74
2022/08/26 02:32:19;;;;;;;23.42;4.35;;;;;;;25.37;52.40;99847.81;5074429;28;20378;-75
2022/08/26 02:34:45;;;;;;;17.25;4.63;;;;;;;25.40;52.56;99848.16;5074502;28;20032;-75
2022/08/26 02:37:11;;;;;;;41.08;6.65;;;;;;;25.42;52.36;99850.66;5074461;28;20029;-76
2022/08/26 02:39:39;;;;;;;21.25;4.32;;;;;;;25.41;52.89;99849.00;5057207;28;20036;-75
2022/08/26 02:42:05;;;;;;;41.30;5.60;;;;;;;25.41;52.74;99841.56;5054511;28;20826;-74
2022/08/26 02:44:31;;;;;;;32.60;5.47;;;;;;;25.47;52.77;99842.53;5054023;28;20028;-76
2022/08/26 02:46:57;;;;;;;20.65;4.80;;;;;;;25.50;52.96;99842.09;5054421;28;20390;-75
2022/08/26 02:49:23;;;;;;;25.55;4.95;;;;;;;25.44;53.54;99834.78;5053956;28;20410;-75
2022/08/26 02:51:49;;;;;;;30.52;5.05;;;;;;;25.48;53.74;99837.84;5053937;28;20049;-76
2022/08/26 02:54:16;;;;;;;32.13;6.28;;;;;;;25.49;53.70;99840.41;5053684;28;20068;-75
2022/08/26 02:56:42;;;;;;;36.63;5.10;;;;;;;25.50;54.16;99842.09;5053736;28;20025;-75
2022/08/26 02:59:11;;;;;;;29.67;5.47;;;;;;;25.55;54.23;99844.97;5063222;28;20078;-76
2022/08/26 03:01:37;;;;;;;31.45;5.85;;;;;;;25.59;53.86;99851.66;5055416;28;20020;-76
2022/08/26 03:04:05;;;;;;;29.50;6.40;;;;;;;25.66;53.39;99852.34;5063403;28;20094;-74
2022/08/26 03:06:30;;;;;;;25.83;4.47;;;;;;;25.60;53.20;99847.81;5073907;28;20398;-75
2022/08/26 03:08:56;;;;;;;31.08;5.10;;;;;;;25.63;52.94;99847.31;5073947;28;20025;-77
2022/08/26 03:11:22;;;;;;;52.03;5.72;;;;;;;25.66;52.36;99854.25;5055411;28;20048;-74
2022/08/26 03:13:48;;;;;;;34.10;4.82;;;;;;;25.70;51.54;99853.56;5053504;28;20482;-75
2022/08/26 03:16:14;;;;;;;43.85;5.90;;;;;;;25.72;50.70;99856.91;5052959;28;20040;-73
2022/08/26 03:18:40;;;;;;;37.42;5.65;;;;;;;25.72;51.04;99862.41;5052022;28;20039;-76
2022/08/26 03:21:11;;;;;;;19.02;3.85;;;;;;;25.74;50.85;99854.75;5053290;28;20108;-74
2022/08/26 03:23:38;;;;;;;19.65;4.10;;;;;;;25.70;50.70;99859.06;5053447;28;20036;-75
2022/08/26 03:26:04;;;;;;;37.90;5.55;;;;;;;25.65;50.60;99853.44;5053402;28;20113;-75
2022/08/26 03:28:30;;;;;;;44.25;5.88;;;;;;;25.66;50.47;99852.34;5053578;28;20478;-73
2022/08/26 03:30:56;;;;;;;21.30;5.75;;;;;;;25.57;50.42;99842.78;5053410;28;20031;-74
2022/08/26 03:33:23;;;;;;;34.28;4.93;;;;;;;25.67;50.37;99859.56;5053503;28;20020;-74
2022/08/26 03:35:49;;;;;;;31.33;5.57;;;;;;;25.69;50.13;99867.56;5053301;28;20024;-75
2022/08/26 03:38:15;;;;;;;24.48;4.90;;;;;;;25.71;50.30;99855.25;5053373;28;20093;-74
2022/08/26 03:40:42;;;;;;;25.15;5.13;;;;;;;25.69;50.49;99851.88;5053303;28;20145;-75
2022/08/26 03:43:11;;;;;;;25.73;5.97;;;;;;;25.73;50.37;99850.31;5051489;28;20032;-75
2022/08/26 03:45:37;;;;;;;30.67;4.82;;;;;;;25.77;49.92;99853.44;5053025;28;20183;-75
2022/08/26 03:48:03;;;;;;;36.88;5.22;;;;;;;25.77;49.62;99847.91;5052954;28;20113;-73
2022/08/26 03:50:28;;;;;;;32.42;5.78;;;;;;;25.80;49.14;99856.53;5052665;28;20036;-73
2022/08/26 03:52:55;;;;;;;40.78;6.85;;;;;;;25.82;48.97;99857.13;5053245;28;20386;-74
2022/08/26 03:55:24;;;;;;;34.70;4.50;;;;;;;25.81;48.89;99863.72;5051917;28;20364;-74
2022/08/26 03:57:50;;;;;;;35.78;4.68;;;;;;;25.84;48.41;99857.72;5052554;28;20033;-75
2022/08/26 04:00:16;;;;;;;29.00;5.80;;;;;;;25.83;48.50;99857.97;5052641;28;20100;-76
2022/08/26 04:02:44;;;;;;;38.65;6.43;;;;;;;25.83;48.34;99853.31;5052513;28;20029;-74
2022/08/26 04:05:12;;;;;;;47.03;8.70;;;;;;;25.86;48.14;99858.31;5051970;28;20123;-73
2022/08/26 04:07:38;;;;;;;47.65;6.53;;;;;;;25.89;47.11;99852.31;5052177;28;20053;-75
2022/08/26 04:10:04;;;;;;;36.35;5.10;;;;;;;25.89;46.40;99857.00;5052379;28;20052;-74
2022/08/26 04:12:30;;;;;;;23.70;4.55;;;;;;;25.86;45.77;99863.00;5050656;28;20386;-74
2022/08/26 04:14:55;;;;;;;41.08;6.05;;;;;;;25.79;45.59;99857.59;5052352;28;20093;-75
2022/08/26 04:17:24;;;;;;;29.30;5.05;;;;;;;25.84;45.57;99865.97;5052316;28;20029;-75
2022/08/26 04:19:51;;;;;;;55.13;7.53;;;;;;;25.78;45.60;99858.69;5052189;28;20032;-75
2022/08/26 04:22:17;;;;;;;36.95;4.57;;;;;;;25.83;45.40;99869.84;5051605;28;20028;-75
2022/08/26 04:24:44;;;;;;;27.52;5.70;;;;;;;25.86;45.56;99871.25;5052164;28;20055;-75
2022/08/26 04:27:09;;;;;;;33.22;4.40;;;;;;;25.82;45.57;99865.38;5040136;28;20487;-76
2022/08/26 04:29:35;;;;;;;31.88;6.25;;;;;;;25.88;45.98;99878.19;5051716;28;20037;-76
2022/08/26 04:32:01;;;;;;;36.40;6.97;;;;;;;25.86;45.94;99869.34;5051499;28;20490;-76
2022/08/26 04:34:27;;;;;;;45.42;6.20;;;;;;;25.95;45.68;99881.66;5051276;28;20108;-76
2022/08/26 04:36:54;;;;;;;30.55;5.95;;;;;;;25.91;44.97;99872.19;5051158;28;20104;-76
2022/08/26 04:39:20;;;;;;;32.60;5.30;;;;;;;25.95;45.03;99884.44;5051164;28;20033;-75
2022/08/26 04:41:47;;;;;;;37.30;4.90;;;;;;;25.97;45.06;99887.75;5051034;28;20081;-75
2022/08/26 04:44:13;;;;;;;32.22;6.95;;;;;;;25.89;44.88;99890.06;5050898;28;20086;-77
2022/08/26 04:46:39;;;;;;;44.72;6.03;;;;;;;25.88;45.18;99894.72;5051633;28;20033;-76
2022/08/26 04:49:07;;;;;;;35.47;5.93;;;;;;;25.96;44.93;99888.84;5066641;28;20044;-77
2022/08/26 04:51:33;;;;;;;37.83;5.72;;;;;;;26.01;45.05;99892.78;5051051;28;20040;-76
2022/08/26 04:53:59;;;;;;;34.15;6.43;;;;;;;26.07;44.90;99891.81;5051548;28;20060;-76
2022/08/26 04:56:27;;;;;;;33.15;5.22;;;;;;;26.10;44.93;99900.44;5051689;28;20041;-74
2022/08/26 04:58:52;;;;;;;37.88;5.97;;;;;;;26.08;44.82;99876.97;5050975;28;20025;-77
2022/08/26 05:01:19;;;;;;;20.95;4.65;;;;;;;26.19;43.91;99892.66;5051742;28;20036;-74
2022/08/26 05:03:46;;;;;;;41.38;6.45;;;;;;;26.10;43.98;99874.78;5051338;28;20028;-76
2022/08/26 05:06:11;;;;;;;35.75;5.57;;;;;;;26.21;44.29;99882.22;5051053;28;21228;-76
2022/08/26 05:08:37;;;;;;;31.45;6.05;;;;;;;26.25;44.10;99886.16;5051296;28;20532;-75
2022/08/26 05:11:04;;;;;;;24.40;4.32;;;;;;;26.31;43.07;99883.25;5050505;28;20493;-76
2022/08/26 05:13:31;;;;;;;37.38;5.22;;;;;;;26.34;43.53;99879.19;5051330;28;20054;-75
2022/08/26 05:16:00;;;;;;;43.85;5.22;;;;;;;26.33;43.32;99880.25;5051494;28;20111;-75
2022/08/26 05:18:28;;;;;;;32.28;4.88;;;;;;;26.37;43.21;99878.69;5051339;28;20029;-76
2022/08/26 05:20:54;;;;;;;33.42;4.80;;;;;;;26.47;42.95;99884.41;5051254;28;20037;-75
2022/08/26 05:23:22;;;;;;;31.13;5.65;;;;;;;26.51;43.07;99885.59;5051248;28;20108;-75
2022/08/26 05:25:49;;;;;;;21.60;3.70;;;;;;;26.63;43.32;99893.81;5050649;28;20040;-76
2022/08/26 05:28:18;;;;;;;36.20;4.47;;;;;;;26.67;42.73;99893.06;5050845;28;20043;-78
2022/08/26 05:30:44;;;;;;;33.83;4.45;;;;;;;26.73;42.63;99892.06;5050719;28;20035;-76
2022/08/26 05:33:10;;;;;;;35.50;5.07;;;;;;;26.81;42.84;99888.97;5051054;28;20029;-75
2022/08/26 05:35:37;;;;;;;29.38;6.03;;;;;;;26.86;42.34;99896.47;5050644;28;20082;-77
2022/08/26 05:38:06;;;;;;;34.10;5.75;;;;;;;26.93;42.14;99898.00;5049227;28;20467;-75
2022/08/26 05:40:44;;;;;;;50.92;7.07;;;;;;;26.96;42.45;99892.00;5049687;28;20029;-76
2022/08/26 05:43:12;;;;;;;52.75;5.70;;;;;;;26.98;42.07;99900.00;5053535;28;20108;-76
2022/08/26 05:45:40;;;;;;;54.88;5.30;;;;;;;27.02;41.84;99895.66;5054522;28;20052;-76
2022/08/26 05:48:08;;;;;;;28.83;5.07;;;;;;;27.03;42.14;99887.13;5054711;28;20028;-76
2022/08/26 05:50:49;;;;;;;35.67;6.93;;;;;;;27.19;41.85;99901.19;5054631;28;20032;-75
2022/08/26 05:53:19;;;;;;;25.52;5.32;;;;;;;27.21;42.59;99890.75;5054838;28;20036;-75
2022/08/26 05:55:50;;;;;;;33.05;6.72;;;;;;;27.26;41.44;99885.28;5054902;28;20032;-76
2022/08/26 05:58:18;;;;;;;46.88;5.30;;;;;;;27.40;41.63;99890.22;5054678;28;20037;-75
2022/08/26 06:00:55;;;;;;;21.88;5.07;;;;;;;27.43;41.26;99894.47;5054614;28;20057;-75
2022/08/26 06:03:21;;;;;;;31.10;5.43;;;;;;;27.45;41.38;99890.34;5054519;28;20036;-75
2022/08/26 06:05:46;;;;;;;35.22;5.28;;;;;;;27.49;41.04;99897.03;5054337;28;20390;-76
2022/08/26 06:08:14;;;;;;;18.05;5.50;;;;;;;27.50;41.39;99889.56;5054341;28;20074;-75
2022/08/26 06:10:49;;;;;;;36.25;5.28;;;;;;;27.61;41.33;99893.34;5053907;28;20032;-75
2022/08/26 06:13:17;;;;;;;26.63;4.78;;;;;;;27.70;40.77;99900.09;5054649;28;20025;-76
2022/08/26 06:15:48;;;;;;;41.15;6.43;;;;;;;27.78;41.16;99902.44;5054694;28;20040;-76
2022/08/26 06:18:17;;;;;;;33.03;6.33;;;;;;;27.78;40.69;99900.50;5054337;28;20035;-76
2022/08/26 06:20:44;;;;;;;65.35;11.95;;;;;;;27.86;40.20;99907.50;5054315;28;20024;-75
2022/08/26 06:25:56;;;;;;;31.88;6.68;;;;;;;27.96;40.90;99924.25;5054641;28;20508;-75
2022/08/26 06:28:23;;;;;;;43.30;11.52;;;;;;;28.03;40.86;99925.75;5054177;28;20021;-77
2022/08/26 06:30:49;;;;;;;39.30;7.65;;;;;;;28.09;40.63;99941.34;5053858;28;20025;-75
2022/08/26 06:33:15;;;;;;;40.00;6.50;;;;;;;28.12;42.27;99940.00;5054131;28;20075;-76
2022/08/26 06:35:41;;;;;;;45.50;7.43;;;;;;;28.19;41.61;99939.81;5054155;28;20494;-77
2022/08/26 06:38:08;;;;;;;48.60;7.18;;;;;;;28.03;43.26;99936.81;5053853;28;20577;-76
2022/08/26 06:40:40;;;;;;;40.58;7.80;;;;;;;27.92;42.93;99939.69;5054102;28;20033;-76
2022/08/26 06:43:05;;;;;;;34.88;6.70;;;;;;;27.81;43.38;99946.13;5053942;28;20068;-76
2022/08/26 06:45:31;;;;;;;58.13;8.80;;;;;;;27.64;43.07;99948.94;5053321;28;20057;-75
2022/08/26 06:47:57;;;;;;;38.85;7.32;;;;;;;27.69;42.92;99957.28;5053330;28;20025;-75
2022/08/26 06:50:23;;;;;;;43.97;6.68;;;;;;;27.66;42.46;99952.28;5053485;28;20036;-74
2022/08/26 06:52:48;;;;;;;45.03;6.68;;;;;;;27.75;42.65;99960.97;5053541;28;20028;-75
2022/08/26 06:55:14;;;;;;;47.40;6.75;;;;;;;27.71;42.71;99954.25;5053170;28;20057;-75
2022/08/26 06:57:39;;;;;;;48.17;6.65;;;;;;;27.72;42.89;99951.25;5053364;28;20478;-76
2022/08/26 07:00:11;;;;;;;38.85;7.75;;;;;;;27.86;42.31;99960.03;5053373;28;20039;-75
2022/08/26 07:02:37;;;;;;;;;;;;;;;27.81;41.74;99966.31;5053725;28;20021;-76
2022/08/26 07:05:04;;;;;;;28.65;6.40;;;;;;;27.85;41.88;99961.97;5058564;28;20271;-75
2022/08/26 07:07:30;;;;;;;47.95;8.23;;;;;;;27.93;42.32;99953.25;5073523;28;20021;-76
2022/08/26 07:09:55;;;;;;;43.72;5.93;;;;;;;27.98;42.49;99961.59;5073171;28;20031;-75
2022/08/26 07:12:21;;;;;;;43.42;9.27;;;;;;;28.07;41.73;99959.28;5073266;28;20016;-75
2022/08/26 07:14:47;;;;;;;39.38;7.18;;;;;;;28.16;41.84;99956.91;5073310;28;20480;-75
2022/08/26 07:17:13;;;;;;;44.72;8.13;;;;;;;28.21;41.87;99954.19;5073137;28;20017;-75
2022/08/26 07:19:39;;;;;;;46.15;8.68;;;;;;;28.24;41.40;99959.22;5065858;28;20174;-76
2022/08/26 07:22:05;;;;;;;38.13;7.75;;;;;;;28.36;40.98;99958.00;5052882;28;20477;-74
2022/08/26 07:24:32;;;;;;;43.33;6.32;;;;;;;28.34;40.54;99949.16;5066164;28;20028;-74
2022/08/26 07:27:07;;;;;;;42.67;7.43;;;;;;;28.45;40.96;99963.94;5073033;28;20028;-75
2022/08/26 07:29:34;;;;;;;37.45;6.85;;;;;;;28.45;40.41;99970.31;5073065;28;20604;-76
2022/08/26 07:32:00;;;;;;;46.20;7.03;;;;;;;28.51;40.41;99971.19;5072905;28;20029;-74
2022/08/26 07:34:26;;;;;;;41.60;8.27;;;;;;;28.64;39.98;99968.03;5072789;28;20025;-74
2022/08/26 07:36:51;;;;;;;52.22;7.38;;;;;;;28.73;40.23;99972.06;5072802;28;20070;-74
2022/08/26 07:39:17;;;;;;;40.33;6.65;;;;;;;28.88;40.06;99977.75;5057787;28;20033;-75
2022/08/26 07:41:45;;;;;;;45.60;8.00;;;;;;;28.92;40.60;99975.31;5052334;28;20025;-75
2022/08/26 07:44:12;;;;;;;42.80;6.13;;;;;;;28.76;40.80;99971.53;5052658;28;20025;-76
2022/08/26 07:46:38;;;;;;;52.78;8.25;;;;;;;28.74;40.21;99976.50;5052278;28;20103;-75
2022/08/26 07:49:04;;;;;;;32.92;7.00;;;;;;;28.70;39.93;99980.03;5052515;28;20095;-75
2022/08/26 07:51:30;;;;;;;50.95;9.13;;;;;;;28.71;40.10;99962.34;5052545;28;20475;-74
2022/08/26 07:53:56;;;;;;;49.55;7.32;;;;;;;28.80;39.69;99953.31;5051914;28;20132;-74
2022/08/26 07:56:23;;;;;;;46.13;7.55;;;;;;;28.91;39.50;99966.16;5052327;28;20032;-74
2022/08/26 07:58:49;;;;;;;32.60;6.53;;;;;;;29.07;39.22;99958.84;5052355;28;20411;-74
2022/08/26 08:01:14;;;;;;;30.83;5.97;;;;;;;29.20;38.93;99952.91;5052552;28;20823;-75
2022/08/26 08:03:40;;;;;;;51.00;9.68;;;;;;;29.20;39.06;99957.59;5051110;28;20033;-75
2022/08/26 08:06:06;;;;;;;31.23;7.18;;;;;;;29.18;39.10;99939.31;5051274;28;20032;-75
2022/08/26 08:08:31;;;;;;;53.17;8.30;;;;;;;29.34;39.03;99947.78;5052035;28;20016;-76
2022/08/26 08:10:57;;;;;;;49.97;8.70;;;;;;;29.23;39.36;99946.00;5052366;28;20025;-76
2022/08/26 08:13:23;;;;;;;36.45;8.00;;;;;;;29.40;38.82;99941.19;5052017;28;20090;-76
2022/08/26 08:15:48;;;;;;;42.00;8.07;;;;;;;29.54;39.00;99943.22;5051775;28;20411;-79
2022/08/26 08:18:15;;;;;;;56.47;9.07;;;;;;;29.70;38.74;99944.19;5051926;28;20475;-79
2022/08/26 08:20:40;;;;;;;47.60;7.32;;;;;;;29.62;38.12;99941.91;5052057;28;20061;-80
2022/08/26 08:23:06;;;;;;;34.97;7.72;;;;;;;29.74;38.48;99942.56;5051668;28;20044;-78
2022/08/26 08:25:33;;;;;;;39.55;6.97;;;;;;;29.77;38.09;99936.47;5051810;28;20036;-78
2022/08/26 08:27:59;;;;;;;44.95;7.22;;;;;;;29.84;38.27;99936.28;5051926;28;20020;-78
2022/08/26 08:30:25;;;;;;;46.75;7.70;;;;;;;29.78;38.12;99931.78;5052253;28;20571;-79
2022/08/26 08:32:51;;;;;;;51.20;9.52;;;;;;;29.84;38.53;99939.91;5051811;28;20021;-77
2022/08/26 08:35:21;;;;;;;39.45;8.40;;;;;;;29.95;38.40;99936.06;5051933;28;20051;-77
2022/08/26 08:37:49;;;;;;;34.42;7.43;;;;;;;29.95;38.94;99916.66;5051864;28;20032;-76
2022/08/26 08:40:16;;;;;;;27.50;5.50;;;;;;;30.07;38.81;99941.41;5051449;28;20033;-77
2022/08/26 08:42:49;;;;;;;35.30;7.53;;;;;;;30.00;37.37;99927.75;5051927;28;20048;-77
2022/08/26 08:45:30;;;;;;;46.70;8.20;;;;;;;30.01;37.81;99932.22;5051733;28;20033;-76
2022/08/26 08:47:59;;;;;;;44.95;8.00;;;;;;;30.06;38.09;99928.66;5051202;28;20033;-78
2022/08/26 08:50:29;;;;;;;40.88;8.13;;;;;;;29.99;37.87;99928.06;5048065;28;20021;-77
2022/08/26 08:53:09;;;;;;;41.67;6.75;;;;;;;30.11;39.21;99929.50;5050991;28;20033;-76
2022/08/26 08:55:41;;;;;;;37.65;7.88;;;;;;;30.13;37.75;99927.28;5049975;28;20060;-76
2022/08/26 08:58:15;;;;;;;23.10;6.20;;;;;;;30.13;37.33;99935.63;5051035;28;20159;-74
2022/08/26 09:01:03;;;;;;;49.65;9.50;;;;;;;30.17;37.22;99936.75;5050711;28;20032;-72
2022/08/26 09:03:41;;;;;;;40.47;7.93;;;;;;;30.18;37.75;99921.75;5051015;28;20112;-73
2022/08/26 09:06:15;;;;;;;32.10;8.23;;;;;;;30.28;37.39;99936.78;5051061;28;20482;-73
2022/08/26 09:08:43;;;;;;;43.30;7.95;;;;;;;30.19;37.12;99937.31;5050521;28;20028;-73
2022/08/26 09:11:09;;;;;;;69.00;8.18;;;;;;;30.09;37.25;99923.38;5050594;28;20505;-72
2022/08/26 09:13:36;;;;;;;64.53;9.18;;;;;;;30.21;37.28;99937.88;5050194;28;20033;-73
2022/08/26 09:16:30;;;;;;;43.67;8.43;;;;;;;30.12;37.60;99928.38;5051654;28;20544;-72
2022/08/26 09:19:07;;;;;;;38.88;8.07;;;;;;;30.12;37.54;99922.84;5054136;28;20462;-72
2022/08/26 09:21:33;;;;;;;34.00;8.05;;;;;;;30.16;37.20;99923.97;5054918;28;20378;-71
2022/08/26 09:23:59;;;;;;;55.38;8.20;;;;;;;30.27;37.28;99919.31;5054886;28;20071;-73
2022/08/26 09:26:29;;;;;;;32.65;7.70;;;;;;;30.39;37.07;99928.28;5056592;28;20032;-73
2022/08/26 09:29:07;;;;;;;57.70;7.97;;;;;;;30.42;37.03;99924.97;5054953;28;20040;-74
2022/08/26 09:31:37;;;;;;;51.95;7.70;;;;;;;30.47;36.89;99924.13;5054300;28;20024;-73
2022/08/26 09:34:21;;;;;;;30.05;8.77;;;;;;;30.51;36.70;99925.28;5054623;28;20067;-73
2022/08/26 09:36:55;;;;;;;48.83;7.80;;;;;;;30.47;37.03;99919.44;5052427;28;20120;-73
2022/08/26 09:39:26;;;;;;;50.65;8.60;;;;;;;30.62;37.11;99926.97;5054577;28;20041;-73
2022/08/26 09:42:24;;;;;;;53.93;7.53;;;;;;;30.75;37.00;99920.91;5055231;28;20124;-73
2022/08/26 09:44:57;;;;;;;40.20;9.20;;;;;;;30.91;36.76;99928.16;5055063;28;20058;-73
2022/08/26 09:47:45;;;;;;;42.70;7.65;;;;;;;30.89;36.40;99926.75;5054495;28;20021;-74
2022/08/26 09:50:30;;;;;;;49.75;8.43;;;;;;;30.78;36.77;99931.47;5054227;28;20065;-73
2022/08/26 09:53:07;;;;;;;31.48;8.63;;;;;;;30.83;36.63;99923.13;5054029;28;20036;-74
2022/08/26 09:55:33;;;;;;;38.22;8.63;;;;;;;30.82;37.16;99918.69;5052642;28;20423;-74
2022/08/26 09:57:59;;;;;;;69.47;9.68;;;;;;;30.80;37.17;99934.78;5053999;28;20077;-74
2022/08/26 10:00:27;;;;;;;40.25;9.07;;;;;;;30.74;37.31;99935.88;5053331;28;20033;-74
2022/08/26 10:02:53;;;;;;;46.78;8.50;;;;;;;30.85;38.21;99943.16;5050237;28;20036;-73
2022/08/26 10:05:29;;;;;;;43.10;9.75;;;;;;;30.70;37.89;99945.88;5054076;28;20032;-74
2022/08/26 10:07:56;;;;;;;48.10;8.60;;;;;;;30.65;37.82;99943.06;5053897;28;20103;-73
2022/08/26 10:10:24;;;;;;;55.30;10.38;;;;;;;30.58;38.52;99934.19;5054257;28;20028;-73
2022/08/26 10:13:09;;;;;;;47.80;7.70;;;;;;;30.53;39.31;99928.59;5053768;28;20031;-73
2022/08/26 10:15:44;;;;;;;48.15;7.97;;;;;;;30.48;39.27;99942.47;5053554;28;20454;-75
2022/08/26 10:18:24;;;;;;;41.95;7.90;;;;;;;30.40;39.96;99940.19;5055700;28;20542;-74
2022/08/26 10:21:01;;;;;;;41.63;8.50;;;;;;;30.08;40.15;99938.38;5054788;28;20052;-74
2022/08/26 10:23:30;;;;;;;36.97;6.53;;;;;;;30.05;39.95;99941.69;5056928;28;20544;-74
2022/08/26 10:26:20;;;;;;;48.17;8.10;;;;;;;29.94;40.13;99941.88;5064217;28;20028;-72
2022/08/26 10:28:56;;;;;;;47.95;8.48;;;;;;;29.86;40.56;99928.53;5052259;28;20031;-74
2022/08/26 10:31:26;;;;;;;47.83;7.35;;;;;;;29.88;40.77;99924.38;5053859;28;20033;-72
2022/08/26 10:33:53;;;;;;;109.72;18.52;;;;;;;30.04;40.59;99926.13;5057917;28;20052;-73
2022/08/26 10:39:13;;;;;;;49.70;5.80;;;;;;;29.88;40.36;99921.59;5056704;28;20042;-73
2022/08/26 10:41:42;;;;;;;36.03;7.07;;;;;;;29.93;40.07;99924.41;5049331;28;20379;-72
2022/08/26 10:44:11;;;;;;;51.05;5.88;;;;;;;30.01;40.21;99920.28;5053948;28;20025;-72
2022/08/26 10:46:53;;;;;;;34.05;4.85;;;;;;;30.08;39.89;99920.88;5053605;28;20027;-74
2022/08/26 10:49:19;;;;;;;;;;;;;;;30.20;39.75;99924.28;5053128;28;20024;-73
2022/08/26 10:52:11;;;;;;;62.63;9.85;;;;;;;30.31;39.80;99925.13;5053419;28;19917;-73
2022/08/26 10:55:03;;;;;;;30.13;5.68;;;;;;;30.18;40.29;99916.22;5053119;28;20045;-73
2022/08/26 10:57:52;;;;;;;;;;;;;;;30.17;40.42;99925.66;5037709;28;20426;-74
2022/08/26 11:03:28;;;;;;;45.15;6.85;;;;;;;30.17;40.20;99920.09;5036631;28;20040;-73
2022/08/26 11:06:18;;;;;;;35.25;6.30;;;;;;;30.33;39.79;99917.41;5058299;28;20112;-72
2022/08/26 11:09:05;;;;;;;39.63;6.18;;;;;;;30.46;39.71;99928.00;5050172;28;20028;-71
2022/08/26 11:11:40;;;;;;;28.80;6.28;;;;;;;30.45;40.36;99926.38;5053027;28;20124;-71
2022/08/26 11:14:18;;;;;;;24.83;5.72;;;;;;;30.39;40.73;99910.78;5053325;28;20419;-72
2022/08/26 11:16:46;;;;;;;42.53;7.60;;;;;;;30.38;40.92;99914.63;5053451;28;20376;-72
2022/08/26 11:19:30;;;;;;;30.23;6.90;;;;;;;30.41;40.26;99911.34;5053233;28;20025;-72
2022/08/26 11:22:05;;;;;;;34.80;6.07;;;;;;;30.35;39.98;99904.09;5053044;28;20031;-72
2022/08/26 11:24:53;;;;;;;36.30;7.22;;;;;;;30.44;39.69;99900.53;5052743;28;20023;-72
2022/08/26 11:27:40;;;;;;;33.90;7.15;;;;;;;30.33;39.69;99900.75;5053257;28;20017;-72
2022/08/26 11:30:11;;;;;;;48.25;8.85;;;;;;;30.32;39.08;99899.91;5042900;28;20128;-72
2022/08/26 11:32:37;;;;;;;35.85;6.85;;;;;;;30.35;39.07;99904.09;5052982;28;20489;-72
2022/08/26 11:35:18;;;;;;;44.85;6.63;;;;;;;30.40;39.51;99902.19;5052836;28;20396;-72
2022/08/26 11:37:56;;;;;;;42.05;7.70;;;;;;;30.35;39.70;99890.19;5052883;28;20489;-71
2022/08/26 11:40:31;;;;;;;35.20;6.38;;;;;;;30.47;39.59;99890.84;5051995;28;20028;-72
2022/08/26 11:42:59;;;;;;;33.15;7.47;;;;;;;30.50;39.44;99895.84;5052609;28;20459;-71
2022/08/26 11:45:43;;;;;;;35.25;6.88;;;;;;;30.47;39.52;99901.94;5051243;28;20474;-71